Denver (DEN/KDEN)

Information

Location
Denver, CO
Local Time
12:14 / 12:14 pm
GMT Time
18:14 / 6:14 pm
Gates
C30
No FAA reported delays
METAR KDEN 201753Z 18013KT 10SM FEW090 FEW110 23/M01 A2992 RMK AO2 PK WND 14029/1725 SLP076 T02281011 10228 20061 58021
TAF KDEN 201732Z 2018/2124 19013KT P6SM FEW090 FEW220 FM202100 18014G23KT P6SM FEW100 FEW220 FM210400 19012KT P6SM FEW120 FEW220 FM210700 21011KT P6SM FEW220 FM211400 24009KT P6SM FEW220 FM211800 19011KT P6SM FEW220